VLG1KT LEZL-GCLP
Flight info
| Callsign | VLG1KT |
|---|---|
| Flight time | 1h 59m |
| Altitude | 35000 |
| Route | CLANA N857 KORNO UN857 TERTO |
| Aircraft | A320/M-SDE3FGHIRWY/LB1 |
Departure
| Time | 2026-03-25 08:12 |
|---|---|
| Airport | Seville Airport (LEZL) |
Arrival
| Time | 2026-03-25 10:11 |
|---|---|
| Airport | Gran Canaria Airport (GCLP) |
| Time | Latitude | Longitude | Altitude | Speed | Heading |
|---|---|---|---|---|---|
| 2026-03-25 07:46 | 37.42304 | -5.89662 | 94 ft | 0 kts | 82° |
| 2026-03-25 08:05 | 37.42306 | -5.89646 | 95 ft | 5 kts | 82° |
| 2026-03-25 08:06 | 37.42307 | -5.89596 | 93 ft | 7 kts | 102° |
| 2026-03-25 08:06 | 37.42274 | -5.89539 | 94 ft | 9 kts | 131° |
| 2026-03-25 08:06 | 37.42230 | -5.89478 | 95 ft | 10 kts | 133° |
| 2026-03-25 08:06 | 37.42179 | -5.89434 | 99 ft | 9 kts | 183° |
| 2026-03-25 08:07 | 37.42122 | -5.89491 | 97 ft | 14 kts | 229° |
| 2026-03-25 08:07 | 37.42034 | -5.89600 | 97 ft | 20 kts | 221° |
| 2026-03-25 08:07 | 37.41982 | -5.89755 | 96 ft | 21 kts | 269° |
| 2026-03-25 08:07 | 37.41984 | -5.89949 | 96 ft | 23 kts | 271° |
| 2026-03-25 08:08 | 37.41980 | -5.90141 | 95 ft | 21 kts | 268° |
| 2026-03-25 08:08 | 37.41980 | -5.90334 | 94 ft | 23 kts | 270° |
| 2026-03-25 08:08 | 37.41978 | -5.90547 | 93 ft | 25 kts | 269° |
| 2026-03-25 08:08 | 37.41978 | -5.90774 | 92 ft | 27 kts | 270° |
| 2026-03-25 08:09 | 37.41978 | -5.90903 | 91 ft | 12 kts | 266° |
| 2026-03-25 08:09 | 37.41938 | -5.91006 | 90 ft | 14 kts | 239° |
| 2026-03-25 08:09 | 37.41887 | -5.91122 | 92 ft | 16 kts | 239° |
| 2026-03-25 08:09 | 37.41818 | -5.91181 | 91 ft | 5 kts | 188° |
| 2026-03-25 08:10 | 37.41790 | -5.91174 | 90 ft | 1 kts | 142° |
| 2026-03-25 08:10 | 37.41786 | -5.91156 | 92 ft | 3 kts | 88° |
| 2026-03-25 08:10 | 37.41788 | -5.91134 | 90 ft | 0 kts | 91° |
| 2026-03-25 08:11 | 37.41787 | -5.91037 | 92 ft | 40 kts | 88° |
| 2026-03-25 08:11 | 37.41790 | -5.90420 | 98 ft | 100 kts | 90° |
| 2026-03-25 08:11 | 37.41793 | -5.89332 | 100 ft | 147 kts | 90° |
| 2026-03-25 08:12 | 37.41803 | -5.87966 | 517 ft | 154 kts | 89° |
| 2026-03-25 08:12 | 37.41771 | -5.86639 | 1237 ft | 152 kts | 94° |
| 2026-03-25 08:12 | 37.41706 | -5.85290 | 1691 ft | 161 kts | 94° |
| 2026-03-25 08:12 | 37.41660 | -5.83793 | 1917 ft | 182 kts | 91° |
| 2026-03-25 08:13 | 37.41330 | -5.82179 | 2155 ft | 205 kts | 126° |
| 2026-03-25 08:13 | 37.40104 | -5.81240 | 2768 ft | 218 kts | 169° |
| 2026-03-25 08:13 | 37.38605 | -5.81601 | 3423 ft | 229 kts | 211° |
| 2026-03-25 08:13 | 37.37600 | -5.83124 | 4027 ft | 236 kts | 252° |
| 2026-03-25 08:14 | 37.37323 | -5.85159 | 4718 ft | 238 kts | 269° |
| 2026-03-25 08:14 | 37.37292 | -5.87242 | 5436 ft | 240 kts | 265° |
| 2026-03-25 08:14 | 37.36695 | -5.89188 | 6125 ft | 242 kts | 233° |
| 2026-03-25 08:14 | 37.35577 | -5.90764 | 6845 ft | 242 kts | 222° |
| 2026-03-25 08:15 | 37.34309 | -5.92156 | 7517 ft | 243 kts | 218° |
| 2026-03-25 08:15 | 37.32995 | -5.93505 | 8185 ft | 246 kts | 218° |
| 2026-03-25 08:15 | 37.31663 | -5.94869 | 8818 ft | 252 kts | 218° |
| 2026-03-25 08:15 | 37.30223 | -5.96301 | 9070 ft | 276 kts | 217° |
| 2026-03-25 08:16 | 37.28678 | -5.97806 | 9490 ft | 290 kts | 217° |
| 2026-03-25 08:16 | 37.27062 | -5.99367 | 10168 ft | 295 kts | 217° |
| 2026-03-25 08:16 | 37.25391 | -6.00986 | 10462 ft | 314 kts | 217° |
| 2026-03-25 08:16 | 37.23599 | -6.02721 | 10597 ft | 336 kts | 217° |
| 2026-03-25 08:17 | 37.21721 | -6.04541 | 11070 ft | 345 kts | 217° |
| 2026-03-25 08:17 | 37.19813 | -6.06397 | 11663 ft | 349 kts | 217° |
| 2026-03-25 08:17 | 37.17888 | -6.08274 | 12268 ft | 353 kts | 217° |
| 2026-03-25 08:17 | 37.15938 | -6.10173 | 12857 ft | 357 kts | 216° |
| 2026-03-25 08:18 | 37.13994 | -6.12065 | 13458 ft | 360 kts | 216° |
| 2026-03-25 08:18 | 37.12005 | -6.13996 | 14057 ft | 363 kts | 216° |
| 2026-03-25 08:18 | 37.09997 | -6.15939 | 14576 ft | 367 kts | 216° |
| 2026-03-25 08:18 | 37.07971 | -6.17899 | 15095 ft | 370 kts | 216° |
| 2026-03-25 08:19 | 37.05928 | -6.19880 | 15613 ft | 373 kts | 216° |
| 2026-03-25 08:19 | 37.03867 | -6.21876 | 16116 ft | 376 kts | 216° |
| 2026-03-25 08:19 | 37.01787 | -6.23888 | 16620 ft | 380 kts | 216° |
| 2026-03-25 08:19 | 36.99687 | -6.25919 | 17126 ft | 383 kts | 216° |
| 2026-03-25 08:20 | 36.97593 | -6.27944 | 17624 ft | 387 kts | 215° |
| 2026-03-25 08:20 | 36.95455 | -6.30009 | 18120 ft | 390 kts | 215° |
| 2026-03-25 08:20 | 36.93296 | -6.32091 | 18591 ft | 394 kts | 215° |
| 2026-03-25 08:20 | 36.91117 | -6.34191 | 19015 ft | 398 kts | 215° |
| 2026-03-25 08:21 | 36.88915 | -6.36311 | 19439 ft | 402 kts | 215° |
| 2026-03-25 08:21 | 36.86693 | -6.38451 | 19869 ft | 405 kts | 215° |
| 2026-03-25 08:21 | 36.84445 | -6.40610 | 20292 ft | 409 kts | 214° |
| 2026-03-25 08:21 | 36.82175 | -6.42789 | 20706 ft | 413 kts | 214° |
| 2026-03-25 08:22 | 36.79917 | -6.44953 | 21117 ft | 417 kts | 214° |
| 2026-03-25 08:22 | 36.77609 | -6.47162 | 21513 ft | 420 kts | 214° |
| 2026-03-25 08:22 | 36.75280 | -6.49393 | 21887 ft | 424 kts | 214° |
| 2026-03-25 08:22 | 36.72930 | -6.51649 | 22274 ft | 428 kts | 214° |
| 2026-03-25 08:23 | 36.70567 | -6.53917 | 22656 ft | 431 kts | 213° |
| 2026-03-25 08:23 | 36.68179 | -6.56203 | 23040 ft | 434 kts | 213° |
| 2026-03-25 08:23 | 36.65776 | -6.58499 | 23423 ft | 437 kts | 213° |
| 2026-03-25 08:23 | 36.63351 | -6.60814 | 23790 ft | 441 kts | 213° |
| 2026-03-25 08:24 | 36.60943 | -6.63112 | 24102 ft | 444 kts | 213° |
| 2026-03-25 08:24 | 36.58490 | -6.65454 | 24439 ft | 446 kts | 213° |
| 2026-03-25 08:24 | 36.56019 | -6.67809 | 24789 ft | 448 kts | 213° |
| 2026-03-25 08:24 | 36.53541 | -6.70167 | 25145 ft | 449 kts | 213° |
| 2026-03-25 08:25 | 36.51053 | -6.72534 | 25478 ft | 451 kts | 213° |
| 2026-03-25 08:25 | 36.48574 | -6.74951 | 25804 ft | 455 kts | 214° |
| 2026-03-25 08:25 | 36.46115 | -6.77450 | 26117 ft | 458 kts | 215° |
| 2026-03-25 08:25 | 36.43671 | -6.80000 | 26425 ft | 460 kts | 216° |
| 2026-03-25 08:26 | 36.41257 | -6.82545 | 26732 ft | 463 kts | 216° |
| 2026-03-25 08:26 | 36.38795 | -6.85135 | 27039 ft | 465 kts | 216° |
| 2026-03-25 08:26 | 36.36312 | -6.87722 | 27313 ft | 468 kts | 215° |
| 2026-03-25 08:27 | 36.31274 | -6.92904 | 27907 ft | 473 kts | 215° |
| 2026-03-25 08:27 | 36.28733 | -6.95504 | 28265 ft | 474 kts | 215° |
| 2026-03-25 08:27 | 36.26183 | -6.98108 | 28610 ft | 476 kts | 215° |
| 2026-03-25 08:27 | 36.23656 | -7.00687 | 28904 ft | 478 kts | 215° |
| 2026-03-25 08:28 | 36.21082 | -7.03311 | 29198 ft | 481 kts | 215° |
| 2026-03-25 08:28 | 36.18502 | -7.05947 | 29601 ft | 481 kts | 215° |
| 2026-03-25 08:28 | 36.15924 | -7.08584 | 30013 ft | 481 kts | 215° |
| 2026-03-25 08:28 | 36.13346 | -7.11218 | 30385 ft | 481 kts | 215° |
| 2026-03-25 08:29 | 36.10768 | -7.13849 | 30737 ft | 481 kts | 215° |
| 2026-03-25 08:29 | 36.08185 | -7.16475 | 31092 ft | 480 kts | 214° |
| 2026-03-25 08:29 | 36.05608 | -7.19094 | 31458 ft | 479 kts | 214° |
| 2026-03-25 08:29 | 36.03036 | -7.21707 | 31839 ft | 479 kts | 215° |
| 2026-03-25 08:30 | 36.00511 | -7.24280 | 32355 ft | 474 kts | 215° |
| 2026-03-25 08:30 | 35.97974 | -7.26860 | 32793 ft | 472 kts | 215° |
| 2026-03-25 08:30 | 35.95440 | -7.29429 | 33178 ft | 471 kts | 215° |
| 2026-03-25 08:30 | 35.92904 | -7.31994 | 33547 ft | 471 kts | 215° |
| 2026-03-25 08:31 | 35.90371 | -7.34553 | 33910 ft | 470 kts | 215° |
| 2026-03-25 08:31 | 35.87842 | -7.37107 | 34230 ft | 470 kts | 215° |
| 2026-03-25 08:31 | 35.85315 | -7.39658 | 34536 ft | 469 kts | 215° |
| 2026-03-25 08:31 | 35.82795 | -7.42200 | 34854 ft | 467 kts | 215° |
| 2026-03-25 08:32 | 35.80278 | -7.44728 | 35075 ft | 467 kts | 215° |
| 2026-03-25 08:32 | 35.77750 | -7.47258 | 35130 ft | 470 kts | 215° |
| 2026-03-25 08:32 | 35.72677 | -7.52312 | 35130 ft | 473 kts | 215° |
| 2026-03-25 08:33 | 35.67556 | -7.57415 | 35128 ft | 474 kts | 215° |
| 2026-03-25 08:33 | 35.62423 | -7.62513 | 35126 ft | 476 kts | 214° |
| 2026-03-25 08:34 | 35.57266 | -7.67626 | 35120 ft | 477 kts | 214° |
| 2026-03-25 08:34 | 35.52130 | -7.72708 | 35125 ft | 478 kts | 214° |
| 2026-03-25 08:35 | 35.46956 | -7.77826 | 35149 ft | 477 kts | 215° |
| 2026-03-25 08:35 | 35.41804 | -7.82913 | 35147 ft | 474 kts | 215° |
| 2026-03-25 08:36 | 35.36690 | -7.87993 | 35136 ft | 473 kts | 216° |
| 2026-03-25 08:36 | 35.31639 | -7.93075 | 35135 ft | 472 kts | 216° |
| 2026-03-25 08:37 | 35.26562 | -7.98158 | 35126 ft | 471 kts | 216° |
| 2026-03-25 08:37 | 35.21477 | -8.03220 | 35140 ft | 471 kts | 216° |
| 2026-03-25 08:38 | 35.16407 | -8.08249 | 35131 ft | 468 kts | 216° |
| 2026-03-25 08:38 | 35.11390 | -8.13215 | 35127 ft | 467 kts | 216° |
| 2026-03-25 08:39 | 35.06356 | -8.18209 | 35118 ft | 466 kts | 216° |
| 2026-03-25 08:39 | 35.01337 | -8.23184 | 35113 ft | 465 kts | 216° |
| 2026-03-25 08:40 | 34.96306 | -8.28152 | 35116 ft | 465 kts | 216° |
| 2026-03-25 08:40 | 34.91324 | -8.33060 | 35116 ft | 463 kts | 216° |
| 2026-03-25 08:41 | 34.86333 | -8.37978 | 35119 ft | 461 kts | 216° |
| 2026-03-25 08:41 | 34.81350 | -8.42886 | 35109 ft | 460 kts | 216° |
| 2026-03-25 08:42 | 34.76376 | -8.47773 | 35102 ft | 460 kts | 216° |
| 2026-03-25 08:42 | 34.71395 | -8.52648 | 35097 ft | 460 kts | 216° |
| 2026-03-25 08:43 | 34.66445 | -8.57480 | 35104 ft | 459 kts | 216° |
| 2026-03-25 08:43 | 34.61483 | -8.62325 | 35099 ft | 457 kts | 216° |
| 2026-03-25 08:44 | 34.56531 | -8.67159 | 35097 ft | 456 kts | 216° |
| 2026-03-25 08:44 | 34.51583 | -8.71974 | 35096 ft | 456 kts | 216° |
| 2026-03-25 08:45 | 34.46671 | -8.76751 | 35089 ft | 456 kts | 216° |
| 2026-03-25 08:45 | 34.41720 | -8.81549 | 35086 ft | 456 kts | 216° |
| 2026-03-25 08:46 | 34.36758 | -8.86313 | 35094 ft | 455 kts | 216° |
| 2026-03-25 08:46 | 34.31808 | -8.91059 | 35092 ft | 453 kts | 217° |
| 2026-03-25 08:47 | 34.26904 | -8.95766 | 35084 ft | 453 kts | 215° |
| 2026-03-25 08:47 | 34.21972 | -9.00490 | 35081 ft | 452 kts | 216° |
| 2026-03-25 08:48 | 34.17039 | -9.05203 | 35079 ft | 452 kts | 216° |
| 2026-03-25 08:48 | 34.12110 | -9.09905 | 35074 ft | 449 kts | 216° |
| 2026-03-25 08:49 | 34.07287 | -9.14508 | 35052 ft | 443 kts | 216° |
| 2026-03-25 08:49 | 34.02458 | -9.19115 | 35053 ft | 442 kts | 217° |
| 2026-03-25 08:50 | 33.97627 | -9.23701 | 35059 ft | 442 kts | 216° |
| 2026-03-25 08:50 | 33.92794 | -9.28279 | 35055 ft | 442 kts | 216° |
| 2026-03-25 08:51 | 33.87959 | -9.32858 | 35054 ft | 442 kts | 217° |
| 2026-03-25 08:51 | 33.83172 | -9.37384 | 35049 ft | 434 kts | 218° |
| 2026-03-25 08:52 | 33.78457 | -9.41849 | 35049 ft | 430 kts | 217° |
| 2026-03-25 08:52 | 33.74552 | -9.45533 | 35045 ft | 429 kts | 217° |
| 2026-03-25 08:53 | 33.69057 | -9.50698 | 35049 ft | 433 kts | 216° |
| 2026-03-25 08:53 | 33.64306 | -9.55170 | 35053 ft | 435 kts | 217° |
| 2026-03-25 08:54 | 33.59542 | -9.59653 | 35052 ft | 435 kts | 217° |
| 2026-03-25 08:54 | 33.55584 | -9.63364 | 35066 ft | 434 kts | 217° |
| 2026-03-25 08:55 | 33.50074 | -9.68530 | 35069 ft | 431 kts | 218° |
| 2026-03-25 08:55 | 33.45355 | -9.72946 | 35061 ft | 430 kts | 217° |
| 2026-03-25 08:56 | 33.40642 | -9.77340 | 35057 ft | 429 kts | 217° |
| 2026-03-25 08:56 | 33.36734 | -9.80982 | 35058 ft | 428 kts | 217° |
| 2026-03-25 08:57 | 33.32036 | -9.85355 | 35053 ft | 428 kts | 217° |
| 2026-03-25 08:57 | 33.27337 | -9.89727 | 35041 ft | 428 kts | 217° |
| 2026-03-25 08:58 | 33.22676 | -9.94065 | 35047 ft | 427 kts | 217° |
| 2026-03-25 08:58 | 33.17981 | -9.98420 | 35055 ft | 427 kts | 217° |
| 2026-03-25 08:59 | 33.12529 | -10.03464 | 35052 ft | 427 kts | 217° |
| 2026-03-25 08:59 | 33.08599 | -10.07099 | 35049 ft | 426 kts | 217° |
| 2026-03-25 09:00 | 33.03942 | -10.11401 | 35047 ft | 426 kts | 217° |
| 2026-03-25 09:00 | 32.99253 | -10.15721 | 35043 ft | 426 kts | 217° |
| 2026-03-25 09:01 | 32.93803 | -10.20746 | 35056 ft | 426 kts | 217° |
| 2026-03-25 09:01 | 32.89871 | -10.24364 | 35043 ft | 427 kts | 217° |
| 2026-03-25 09:02 | 32.85193 | -10.28654 | 35040 ft | 427 kts | 217° |
| 2026-03-25 09:02 | 32.80479 | -10.32964 | 35031 ft | 428 kts | 217° |
| 2026-03-25 09:03 | 32.75761 | -10.37278 | 35031 ft | 428 kts | 216° |
| 2026-03-25 09:03 | 32.71049 | -10.41584 | 35034 ft | 427 kts | 217° |
| 2026-03-25 09:04 | 32.66335 | -10.45878 | 35036 ft | 427 kts | 217° |
| 2026-03-25 09:04 | 32.61662 | -10.50136 | 35040 ft | 426 kts | 217° |
| 2026-03-25 09:05 | 32.56964 | -10.54419 | 35029 ft | 426 kts | 217° |
| 2026-03-25 09:05 | 32.52264 | -10.58683 | 35041 ft | 426 kts | 217° |
| 2026-03-25 09:06 | 32.47554 | -10.62954 | 35014 ft | 426 kts | 216° |
| 2026-03-25 09:06 | 32.42878 | -10.67197 | 35014 ft | 427 kts | 216° |
| 2026-03-25 09:07 | 32.38169 | -10.71465 | 35024 ft | 426 kts | 216° |
| 2026-03-25 09:07 | 32.33462 | -10.75727 | 35027 ft | 425 kts | 216° |
| 2026-03-25 09:08 | 32.28759 | -10.79971 | 35021 ft | 425 kts | 216° |
| 2026-03-25 09:08 | 32.24090 | -10.84180 | 35014 ft | 425 kts | 216° |
| 2026-03-25 09:09 | 32.19380 | -10.88411 | 35020 ft | 425 kts | 216° |
| 2026-03-25 09:09 | 32.14677 | -10.92643 | 35020 ft | 425 kts | 216° |
| 2026-03-25 09:10 | 32.09970 | -10.96872 | 35024 ft | 425 kts | 216° |
| 2026-03-25 09:10 | 32.05289 | -11.01071 | 35016 ft | 426 kts | 216° |
| 2026-03-25 09:11 | 32.00576 | -11.05290 | 35009 ft | 425 kts | 216° |
| 2026-03-25 09:11 | 31.95859 | -11.09508 | 35002 ft | 426 kts | 215° |
| 2026-03-25 09:12 | 31.91175 | -11.13690 | 35000 ft | 426 kts | 216° |
| 2026-03-25 09:12 | 31.86454 | -11.17896 | 35004 ft | 426 kts | 216° |
| 2026-03-25 09:13 | 31.81732 | -11.22100 | 35013 ft | 425 kts | 216° |
| 2026-03-25 09:13 | 31.77018 | -11.26289 | 35014 ft | 424 kts | 216° |
| 2026-03-25 09:14 | 31.72344 | -11.30448 | 35015 ft | 424 kts | 216° |
| 2026-03-25 09:14 | 31.67647 | -11.34640 | 35024 ft | 424 kts | 216° |
| 2026-03-25 09:15 | 31.62940 | -11.38840 | 34994 ft | 426 kts | 215° |
| 2026-03-25 09:15 | 31.58220 | -11.43039 | 34992 ft | 426 kts | 216° |
| 2026-03-25 09:16 | 31.53523 | -11.47214 | 35014 ft | 426 kts | 216° |
| 2026-03-25 09:17 | 31.46439 | -11.53492 | 35016 ft | 425 kts | 216° |
| 2026-03-25 09:17 | 31.41722 | -11.57664 | 35012 ft | 425 kts | 216° |
| 2026-03-25 09:18 | 31.37007 | -11.61828 | 35018 ft | 424 kts | 216° |
| 2026-03-25 09:18 | 31.32305 | -11.65987 | 35015 ft | 424 kts | 216° |
| 2026-03-25 09:19 | 31.27638 | -11.70113 | 35011 ft | 424 kts | 216° |
| 2026-03-25 09:19 | 31.22933 | -11.74258 | 35024 ft | 422 kts | 216° |
| 2026-03-25 09:20 | 31.18255 | -11.78372 | 35022 ft | 420 kts | 217° |
| 2026-03-25 09:20 | 31.13633 | -11.82438 | 35024 ft | 418 kts | 216° |
| 2026-03-25 09:21 | 31.08992 | -11.86506 | 35018 ft | 417 kts | 216° |
| 2026-03-25 09:21 | 31.04357 | -11.90566 | 35015 ft | 416 kts | 216° |
| 2026-03-25 09:22 | 30.99726 | -11.94611 | 35003 ft | 416 kts | 216° |
| 2026-03-25 09:22 | 30.95101 | -11.98646 | 35007 ft | 415 kts | 217° |
| 2026-03-25 09:23 | 30.90525 | -12.02642 | 35021 ft | 412 kts | 217° |
| 2026-03-25 09:23 | 30.85945 | -12.06644 | 35016 ft | 412 kts | 217° |
| 2026-03-25 09:24 | 30.81363 | -12.10647 | 35000 ft | 413 kts | 216° |
| 2026-03-25 09:24 | 30.76762 | -12.14649 | 34995 ft | 413 kts | 216° |
| 2026-03-25 09:25 | 30.72184 | -12.18630 | 34989 ft | 414 kts | 216° |
| 2026-03-25 09:25 | 30.67570 | -12.22632 | 34990 ft | 414 kts | 216° |
| 2026-03-25 09:26 | 30.62953 | -12.26628 | 35009 ft | 413 kts | 217° |
| 2026-03-25 09:26 | 30.58363 | -12.30603 | 35014 ft | 411 kts | 217° |
| 2026-03-25 09:27 | 30.53823 | -12.34531 | 35026 ft | 409 kts | 217° |
| 2026-03-25 09:27 | 30.49270 | -12.38468 | 35024 ft | 408 kts | 217° |
| 2026-03-25 09:28 | 30.44714 | -12.42389 | 35022 ft | 408 kts | 216° |
| 2026-03-25 09:28 | 30.40132 | -12.46311 | 34989 ft | 410 kts | 216° |
| 2026-03-25 09:29 | 30.35564 | -12.50221 | 34984 ft | 412 kts | 216° |
| 2026-03-25 09:29 | 30.30967 | -12.54164 | 35011 ft | 411 kts | 216° |
| 2026-03-25 09:30 | 30.26383 | -12.58090 | 35019 ft | 409 kts | 216° |
| 2026-03-25 09:30 | 30.21814 | -12.61995 | 35021 ft | 408 kts | 216° |
| 2026-03-25 09:31 | 30.17254 | -12.65889 | 35025 ft | 407 kts | 216° |
| 2026-03-25 09:31 | 30.12726 | -12.69744 | 35024 ft | 407 kts | 216° |
| 2026-03-25 09:32 | 30.08174 | -12.73623 | 35019 ft | 406 kts | 216° |
| 2026-03-25 09:32 | 30.03634 | -12.77515 | 35035 ft | 407 kts | 216° |
| 2026-03-25 09:33 | 29.99074 | -12.81418 | 34985 ft | 409 kts | 216° |
| 2026-03-25 09:33 | 29.94521 | -12.85311 | 34977 ft | 411 kts | 216° |
| 2026-03-25 09:34 | 29.89906 | -12.89241 | 34977 ft | 413 kts | 216° |
| 2026-03-25 09:34 | 29.85276 | -12.93178 | 34980 ft | 414 kts | 216° |
| 2026-03-25 09:35 | 29.80634 | -12.97119 | 34988 ft | 415 kts | 216° |
| 2026-03-25 09:35 | 29.76011 | -13.01039 | 34998 ft | 416 kts | 216° |
| 2026-03-25 09:36 | 29.71363 | -13.04979 | 35011 ft | 414 kts | 217° |
| 2026-03-25 09:36 | 29.66737 | -13.08896 | 35025 ft | 412 kts | 217° |
| 2026-03-25 09:37 | 29.62129 | -13.12796 | 35019 ft | 410 kts | 217° |
| 2026-03-25 09:37 | 29.57528 | -13.16689 | 34997 ft | 412 kts | 217° |
| 2026-03-25 09:38 | 29.52935 | -13.20570 | 34980 ft | 413 kts | 216° |
| 2026-03-25 09:38 | 29.48669 | -13.24914 | 35107 ft | 409 kts | 224° |
| 2026-03-25 09:38 | 29.46486 | -13.27031 | 34997 ft | 412 kts | 216° |
| 2026-03-25 09:39 | 29.44101 | -13.28850 | 34978 ft | 412 kts | 212° |
| 2026-03-25 09:39 | 29.39219 | -13.32273 | 34998 ft | 411 kts | 213° |
| 2026-03-25 09:40 | 29.34518 | -13.35918 | 35011 ft | 410 kts | 216° |
| 2026-03-25 09:40 | 29.29932 | -13.39810 | 35017 ft | 410 kts | 217° |
| 2026-03-25 09:41 | 29.25367 | -13.43726 | 35018 ft | 410 kts | 217° |
| 2026-03-25 09:41 | 29.20777 | -13.47594 | 35014 ft | 410 kts | 216° |
| 2026-03-25 09:42 | 29.16205 | -13.51424 | 35014 ft | 411 kts | 218° |
| 2026-03-25 09:42 | 29.11785 | -13.55599 | 34989 ft | 412 kts | 221° |
| 2026-03-25 09:43 | 29.07514 | -13.59967 | 35013 ft | 411 kts | 222° |
| 2026-03-25 09:43 | 29.03236 | -13.64302 | 35021 ft | 411 kts | 221° |
| 2026-03-25 09:44 | 28.98949 | -13.68544 | 35022 ft | 410 kts | 221° |
| 2026-03-25 09:44 | 28.94628 | -13.72783 | 35019 ft | 409 kts | 221° |
| 2026-03-25 09:45 | 28.90310 | -13.77018 | 35016 ft | 409 kts | 221° |
| 2026-03-25 09:45 | 28.85995 | -13.81254 | 35017 ft | 409 kts | 221° |
| 2026-03-25 09:46 | 28.81714 | -13.85468 | 35011 ft | 409 kts | 221° |
| 2026-03-25 09:46 | 28.77399 | -13.89703 | 35028 ft | 409 kts | 221° |
| 2026-03-25 09:46 | 28.75245 | -13.91813 | 34900 ft | 407 kts | 221° |
| 2026-03-25 09:47 | 28.73115 | -13.93896 | 34578 ft | 401 kts | 221° |
| 2026-03-25 09:47 | 28.71006 | -13.95959 | 34147 ft | 399 kts | 221° |
| 2026-03-25 09:47 | 28.68902 | -13.98015 | 33661 ft | 397 kts | 221° |
| 2026-03-25 09:47 | 28.66822 | -14.00049 | 33234 ft | 393 kts | 221° |
| 2026-03-25 09:48 | 28.64786 | -14.02039 | 32805 ft | 389 kts | 221° |
| 2026-03-25 09:48 | 28.62744 | -14.04036 | 32375 ft | 386 kts | 221° |
| 2026-03-25 09:48 | 28.60715 | -14.06016 | 31952 ft | 382 kts | 221° |
| 2026-03-25 09:48 | 28.58704 | -14.07978 | 31525 ft | 380 kts | 221° |
| 2026-03-25 09:49 | 28.56704 | -14.09928 | 31122 ft | 377 kts | 221° |
| 2026-03-25 09:49 | 28.54714 | -14.11865 | 30716 ft | 376 kts | 221° |
| 2026-03-25 09:49 | 28.52734 | -14.13792 | 30308 ft | 374 kts | 221° |
| 2026-03-25 09:49 | 28.50761 | -14.15711 | 29880 ft | 373 kts | 221° |
| 2026-03-25 09:50 | 28.48796 | -14.17624 | 29461 ft | 370 kts | 220° |
| 2026-03-25 09:50 | 28.46877 | -14.19492 | 29107 ft | 367 kts | 220° |
| 2026-03-25 09:50 | 28.44947 | -14.21369 | 28734 ft | 363 kts | 220° |
| 2026-03-25 09:50 | 28.43050 | -14.23217 | 28574 ft | 355 kts | 221° |
| 2026-03-25 09:51 | 28.41197 | -14.25020 | 28431 ft | 347 kts | 221° |
| 2026-03-25 09:51 | 28.39360 | -14.26803 | 27569 ft | 352 kts | 221° |
| 2026-03-25 09:51 | 28.37476 | -14.28630 | 27116 ft | 353 kts | 221° |
| 2026-03-25 09:51 | 28.35622 | -14.30427 | 26816 ft | 349 kts | 221° |
| 2026-03-25 09:52 | 28.33810 | -14.32184 | 26444 ft | 346 kts | 221° |
| 2026-03-25 09:52 | 28.31984 | -14.34000 | 25689 ft | 355 kts | 223° |
| 2026-03-25 09:52 | 28.30156 | -14.35925 | 25092 ft | 360 kts | 224° |
| 2026-03-25 09:52 | 28.28352 | -14.37884 | 24686 ft | 358 kts | 224° |
| 2026-03-25 09:53 | 28.26566 | -14.39839 | 24293 ft | 356 kts | 224° |
| 2026-03-25 09:53 | 28.24788 | -14.41783 | 23884 ft | 354 kts | 224° |
| 2026-03-25 09:53 | 28.23013 | -14.43710 | 23458 ft | 353 kts | 224° |
| 2026-03-25 09:53 | 28.21243 | -14.45622 | 23017 ft | 350 kts | 224° |
| 2026-03-25 09:54 | 28.19488 | -14.47510 | 22613 ft | 346 kts | 224° |
| 2026-03-25 09:54 | 28.17766 | -14.49354 | 22216 ft | 343 kts | 223° |
| 2026-03-25 09:54 | 28.16035 | -14.51201 | 21820 ft | 340 kts | 223° |
| 2026-03-25 09:54 | 28.14319 | -14.53032 | 21420 ft | 338 kts | 223° |
| 2026-03-25 09:55 | 28.12618 | -14.54853 | 21025 ft | 335 kts | 223° |
| 2026-03-25 09:55 | 28.10928 | -14.56665 | 20634 ft | 333 kts | 223° |
| 2026-03-25 09:55 | 28.09249 | -14.58464 | 20235 ft | 331 kts | 224° |
| 2026-03-25 09:55 | 28.07577 | -14.60254 | 19846 ft | 330 kts | 224° |
| 2026-03-25 09:56 | 28.05910 | -14.62036 | 19452 ft | 329 kts | 223° |
| 2026-03-25 09:56 | 28.04271 | -14.63789 | 19070 ft | 328 kts | 223° |
| 2026-03-25 09:56 | 28.02609 | -14.65560 | 18681 ft | 328 kts | 223° |
| 2026-03-25 09:56 | 28.00950 | -14.67326 | 18287 ft | 328 kts | 223° |
| 2026-03-25 09:57 | 27.99291 | -14.69092 | 17873 ft | 327 kts | 223° |
| 2026-03-25 09:57 | 27.97641 | -14.70848 | 17478 ft | 325 kts | 223° |
| 2026-03-25 09:57 | 27.96003 | -14.72594 | 17084 ft | 323 kts | 223° |
| 2026-03-25 09:57 | 27.94371 | -14.74336 | 16704 ft | 322 kts | 223° |
| 2026-03-25 09:58 | 27.92747 | -14.76065 | 16322 ft | 320 kts | 223° |
| 2026-03-25 09:58 | 27.91126 | -14.77788 | 15921 ft | 319 kts | 223° |
| 2026-03-25 09:58 | 27.89531 | -14.79481 | 15564 ft | 318 kts | 222° |
| 2026-03-25 09:58 | 27.87918 | -14.81196 | 15183 ft | 318 kts | 222° |
| 2026-03-25 09:59 | 27.86312 | -14.82908 | 14798 ft | 318 kts | 223° |
| 2026-03-25 09:59 | 27.84703 | -14.84619 | 14427 ft | 317 kts | 223° |
| 2026-03-25 09:59 | 27.83097 | -14.86324 | 14044 ft | 317 kts | 223° |
| 2026-03-25 09:59 | 27.81492 | -14.88025 | 13652 ft | 316 kts | 222° |
| 2026-03-25 10:00 | 27.79890 | -14.89724 | 13263 ft | 315 kts | 222° |
| 2026-03-25 10:00 | 27.78319 | -14.91389 | 12884 ft | 313 kts | 222° |
| 2026-03-25 10:00 | 27.76735 | -14.93067 | 12511 ft | 312 kts | 221° |
| 2026-03-25 10:00 | 27.75157 | -14.94737 | 12138 ft | 310 kts | 221° |
| 2026-03-25 10:01 | 27.73587 | -14.96401 | 11767 ft | 309 kts | 222° |
| 2026-03-25 10:01 | 27.72026 | -14.98065 | 11389 ft | 308 kts | 225° |
| 2026-03-25 10:01 | 27.70747 | -15.00002 | 11011 ft | 309 kts | 241° |
| 2026-03-25 10:01 | 27.70007 | -15.02281 | 10626 ft | 311 kts | 258° |
| 2026-03-25 10:02 | 27.69867 | -15.04706 | 10328 ft | 308 kts | 271° |
| 2026-03-25 10:02 | 27.69918 | -15.07085 | 10033 ft | 299 kts | 270° |
| 2026-03-25 10:02 | 27.69536 | -15.09326 | 9461 ft | 296 kts | 259° |
| 2026-03-25 10:02 | 27.69405 | -15.11648 | 9088 ft | 297 kts | 270° |
| 2026-03-25 10:03 | 27.69531 | -15.13975 | 8715 ft | 298 kts | 274° |
| 2026-03-25 10:03 | 27.69724 | -15.16285 | 8467 ft | 293 kts | 274° |
| 2026-03-25 10:03 | 27.69891 | -15.18561 | 8139 ft | 289 kts | 273° |
| 2026-03-25 10:03 | 27.70010 | -15.20814 | 7643 ft | 287 kts | 271° |
| 2026-03-25 10:04 | 27.70087 | -15.23059 | 7254 ft | 286 kts | 270° |
| 2026-03-25 10:04 | 27.70137 | -15.25301 | 6890 ft | 285 kts | 270° |
| 2026-03-25 10:04 | 27.70171 | -15.27516 | 6531 ft | 287 kts | 270° |
| 2026-03-25 10:04 | 27.70196 | -15.29747 | 6343 ft | 280 kts | 270° |
| 2026-03-25 10:05 | 27.70218 | -15.31909 | 6205 ft | 268 kts | 269° |
| 2026-03-25 10:05 | 27.70240 | -15.33978 | 5740 ft | 265 kts | 270° |
| 2026-03-25 10:05 | 27.70260 | -15.36069 | 5238 ft | 265 kts | 270° |
| 2026-03-25 10:05 | 27.70280 | -15.38118 | 5111 ft | 257 kts | 270° |
| 2026-03-25 10:06 | 27.70299 | -15.40102 | 5000 ft | 250 kts | 270° |
| 2026-03-25 10:06 | 27.70371 | -15.42045 | 4886 ft | 248 kts | 279° |
| 2026-03-25 10:06 | 27.70954 | -15.43858 | 4767 ft | 247 kts | 302° |
| 2026-03-25 10:06 | 27.72053 | -15.45304 | 4379 ft | 250 kts | 323° |
| 2026-03-25 10:07 | 27.73612 | -15.46217 | 3831 ft | 255 kts | 348° |
| 2026-03-25 10:07 | 27.75330 | -15.46361 | 3529 ft | 241 kts | 11° |
| 2026-03-25 10:07 | 27.76875 | -15.45861 | 3239 ft | 224 kts | 25° |
| 2026-03-25 10:07 | 27.78286 | -15.45239 | 2951 ft | 212 kts | 25° |
| 2026-03-25 10:08 | 27.79612 | -15.44654 | 2691 ft | 197 kts | 25° |
| 2026-03-25 10:08 | 27.80849 | -15.44108 | 2426 ft | 187 kts | 25° |
| 2026-03-25 10:08 | 27.82016 | -15.43594 | 2179 ft | 174 kts | 24° |
| 2026-03-25 10:08 | 27.83090 | -15.43121 | 1964 ft | 158 kts | 25° |
| 2026-03-25 10:09 | 27.84068 | -15.42689 | 1755 ft | 149 kts | 24° |
| 2026-03-25 10:09 | 27.85027 | -15.42265 | 1555 ft | 147 kts | 24° |
| 2026-03-25 10:09 | 27.85975 | -15.41846 | 1365 ft | 146 kts | 24° |
| 2026-03-25 10:09 | 27.86922 | -15.41433 | 1148 ft | 146 kts | 25° |
| 2026-03-25 10:10 | 27.87853 | -15.41011 | 973 ft | 143 kts | 22° |
| 2026-03-25 10:10 | 27.88769 | -15.40600 | 780 ft | 139 kts | 22° |
| 2026-03-25 10:10 | 27.89665 | -15.40204 | 569 ft | 138 kts | 20° |
| 2026-03-25 10:10 | 27.90556 | -15.39814 | 408 ft | 137 kts | 21° |
| 2026-03-25 10:11 | 27.91438 | -15.39432 | 210 ft | 135 kts | 20° |
| 2026-03-25 10:11 | 27.92289 | -15.39055 | 87 ft | 125 kts | 21° |
| 2026-03-25 10:11 | 27.92980 | -15.38749 | 58 ft | 82 kts | 21° |
| 2026-03-25 10:11 | 27.93395 | -15.38568 | 58 ft | 44 kts | 20° |
| 2026-03-25 10:12 | 27.93639 | -15.38461 | 61 ft | 35 kts | 22° |
| 2026-03-25 10:12 | 27.93831 | -15.38430 | 60 ft | 22 kts | 358° |
| 2026-03-25 10:12 | 27.93950 | -15.38442 | 69 ft | 12 kts | 352° |
| 2026-03-25 10:12 | 27.94001 | -15.38456 | 72 ft | 3 kts | 335° |
| 2026-03-25 10:13 | 27.94022 | -15.38470 | 65 ft | 5 kts | 322° |
| 2026-03-25 10:13 | 27.94051 | -15.38515 | 69 ft | 8 kts | 300° |
| 2026-03-25 10:13 | 27.94073 | -15.38576 | 64 ft | 9 kts | 281° |
| 2026-03-25 10:13 | 27.94059 | -15.38630 | 82 ft | 6 kts | 218° |
| 2026-03-25 10:14 | 27.94009 | -15.38655 | 85 ft | 9 kts | 200° |
| 2026-03-25 10:14 | 27.93950 | -15.38681 | 83 ft | 9 kts | 201° |
| 2026-03-25 10:14 | 27.93886 | -15.38709 | 88 ft | 8 kts | 202° |
| 2026-03-25 10:14 | 27.93883 | -15.38756 | 89 ft | 7 kts | 292° |
| 2026-03-25 10:15 | 27.93893 | -15.38785 | 85 ft | 2 kts | 290° |
| 2026-03-25 10:15 | 27.93898 | -15.38800 | 88 ft | 2 kts | 291° |